Du Pont, Georgia
Current Conditions -  °F | °C
As of 11:15 AM on Monday 22 Dec 2014 (Local Time) from KHOE Reporting Station
Thunderstorm Thunderstorm  
Wind Chill: 54°   Ceiling: 200
Heat Index: 54°   Visibility: 0.25mi
Dew Point: 54°   Wind: 3mph
Humidity: 100%   Direction: 70°ENE
Pressure: 29.99"   Gusts: NA
Location:  30.99°N, 82.87°W
Report Text: KHOE 221615Z AUTO 07003KT 1/4SM VCTS FG OVC002 12/12 A2999 RMK AO2 LTG DSNT NE
Loading
Personal Weather Stations






























Interactive Weather Map New forecast layout! Learn more

10-Day Weather Forecast

Advertisements
Track Severe Weather on mobile